sim
Sign-in with your pilot id or email,
or register
Callsign
Passwort

Schedule Details

Flight Number: OEO2544
Departure: Bremen Airport (EDDW) at 15:20
Arrival: Nice Cote d'Azur Airport (LFMN) at 17:20

Weather Information
Getting current METAR information for EDDW 101750Z 29006KT 9999 FEW022 15/10 Q1016 NOSIG
Getting current METAR information for LFMN 101800Z 16003KT 9999 FEW016 BKN260 26/19 Q1014 NOSIG

Schedule Frequency

Route Map